createdAt,value
2023-05-16T00:01:19.826Z,12.54
2023-05-16T00:03:47.764Z,12.48
2023-05-16T00:06:15.871Z,12.44
2023-05-16T00:08:43.544Z,12.57
2023-05-16T00:11:12.982Z,12.55
2023-05-16T00:13:42.407Z,12.54
2023-05-16T00:16:11.841Z,12.60
2023-05-16T00:18:39.710Z,12.48
2023-05-16T00:21:07.943Z,12.54
2023-05-16T00:23:35.670Z,12.55
2023-05-16T00:26:03.835Z,12.52
2023-05-16T00:28:32.759Z,12.50
2023-05-16T00:31:01.763Z,12.47
2023-05-16T00:33:29.372Z,12.48
2023-05-16T00:35:57.448Z,12.47
2023-05-16T00:38:26.089Z,12.43
2023-05-16T00:40:54.019Z,12.42
2023-05-16T00:43:21.703Z,12.40
2023-05-16T00:45:53.336Z,12.37
2023-05-16T00:48:21.177Z,12.28
2023-05-16T00:50:49.620Z,12.28
2023-05-16T00:53:17.598Z,12.21
2023-05-16T00:55:45.878Z,12.15
2023-05-16T00:58:14.338Z,12.13
2023-05-16T01:00:42.236Z,12.06
2023-05-16T01:03:12.991Z,12.08
2023-05-16T01:05:41.011Z,12.00
2023-05-16T01:08:08.914Z,11.92
2023-05-16T01:10:43.518Z,11.95
2023-05-16T01:13:16.978Z,11.91
2023-05-16T01:15:51.732Z,11.84
2023-05-16T01:18:29.976Z,11.86
2023-05-16T01:21:03.903Z,11.95
2023-05-16T01:23:43.713Z,11.88
2023-05-16T01:26:16.601Z,11.96
2023-05-16T01:28:46.611Z,11.86
2023-05-16T01:31:14.398Z,11.88
2023-05-16T01:33:42.209Z,11.71
2023-05-16T01:36:14.844Z,11.75
2023-05-16T01:38:47.230Z,11.71
2023-05-16T01:41:23.361Z,11.69
2023-05-16T01:43:56.089Z,11.67
2023-05-16T01:46:29.795Z,11.62
2023-05-16T01:49:07.045Z,11.74
2023-05-16T01:51:39.670Z,11.69
2023-05-16T01:54:13.722Z,11.65
2023-05-16T01:56:48.609Z,11.75
2023-05-16T01:59:16.667Z,11.67
2023-05-16T02:01:44.322Z,11.60
2023-05-16T02:04:13.751Z,11.49
2023-05-16T02:06:43.164Z,11.50
2023-05-16T02:09:10.975Z,11.47
2023-05-16T02:11:43.429Z,11.43
2023-05-16T02:14:11.282Z,11.38
2023-05-16T02:16:39.535Z,11.52
2023-05-16T02:19:07.700Z,11.60
2023-05-16T02:21:35.516Z,11.64
2023-05-16T02:24:03.549Z,11.62
2023-05-16T02:26:31.315Z,11.58
2023-05-16T02:29:00.612Z,11.66
2023-05-16T02:31:29.073Z,11.71
2023-05-16T02:33:57.136Z,11.66
2023-05-16T02:36:25.046Z,11.60
2023-05-16T02:38:53.004Z,11.51
2023-05-16T02:41:23.286Z,11.35
2023-05-16T02:43:51.179Z,11.23
2023-05-16T02:46:27.875Z,11.09
2023-05-16T02:48:56.180Z,10.99
2023-05-16T02:51:25.926Z,10.93
2023-05-16T02:53:54.488Z,10.84
2023-05-16T02:56:22.497Z,10.70
2023-05-16T02:58:51.018Z,10.62
2023-05-16T03:01:19.125Z,10.53
2023-05-16T03:03:48.329Z,10.49
2023-05-16T03:06:16.198Z,10.39
2023-05-16T03:08:43.895Z,10.31
2023-05-16T03:11:11.814Z,10.29
2023-05-16T03:13:41.719Z,10.24
2023-05-16T03:16:10.005Z,10.09
2023-05-16T03:18:37.769Z,10.15
2023-05-16T03:21:07.722Z,10.00
2023-05-16T03:23:35.505Z,9.96
2023-05-16T03:26:06.359Z,9.89
2023-05-16T03:28:34.000Z,9.85
2023-05-16T03:31:01.926Z,9.82
2023-05-16T03:33:29.809Z,9.86
2023-05-16T03:35:58.319Z,9.90
2023-05-16T03:38:27.490Z,9.99
2023-05-16T03:40:55.474Z,10.04
2023-05-16T03:43:23.055Z,10.16
2023-05-16T03:45:51.020Z,10.23
2023-05-16T03:48:18.695Z,10.39
2023-05-16T03:50:46.762Z,10.38
2023-05-16T03:53:14.522Z,10.42
2023-05-16T03:55:43.993Z,10.47
2023-05-16T03:58:12.170Z,10.55
2023-05-16T04:00:40.056Z,10.59
2023-05-16T04:03:08.683Z,10.63
2023-05-16T04:05:36.832Z,10.80
2023-05-16T04:08:04.611Z,10.69
2023-05-16T04:10:32.456Z,10.77
2023-05-16T04:13:01.388Z,10.78
2023-05-16T04:15:29.454Z,10.93
2023-05-16T04:17:57.328Z,10.95
2023-05-16T04:20:25.310Z,11.01
2023-05-16T04:22:53.264Z,11.15
2023-05-16T04:25:21.678Z,11.19
2023-05-16T04:27:49.291Z,11.26
2023-05-16T04:30:19.427Z,11.32
2023-05-16T04:32:47.076Z,11.43
2023-05-16T04:35:15.334Z,12.06
2023-05-16T04:37:42.984Z,12.12
2023-05-16T04:40:11.439Z,11.85
2023-05-16T04:42:39.027Z,12.01
2023-05-16T04:45:10.883Z,11.81
2023-05-16T04:47:40.156Z,11.96
2023-05-16T04:50:09.883Z,11.92
2023-05-16T04:52:38.329Z,11.95
2023-05-16T04:55:06.959Z,12.03
2023-05-16T04:57:34.631Z,12.20
2023-05-16T05:00:02.763Z,11.91
2023-05-16T05:02:30.433Z,12.11
2023-05-16T05:04:59.461Z,12.05
2023-05-16T05:07:29.237Z,12.06
2023-05-16T05:09:57.003Z,12.05
2023-05-16T05:12:25.770Z,12.40
2023-05-16T05:14:53.495Z,12.19
2023-05-16T05:17:21.938Z,12.22
2023-05-16T05:19:49.587Z,12.27
2023-05-16T05:22:18.825Z,12.23
2023-05-16T05:24:46.949Z,12.26
2023-05-16T05:27:14.889Z,12.28
2023-05-16T05:29:42.813Z,12.25
2023-05-16T05:32:10.854Z,12.16
2023-05-16T05:34:38.561Z,12.16
2023-05-16T05:37:06.652Z,12.26
2023-05-16T05:39:35.626Z,12.29
2023-05-16T05:42:03.736Z,12.48
2023-05-16T05:44:31.745Z,12.66
2023-05-16T05:46:59.917Z,12.64
2023-05-16T05:49:28.474Z,12.68
2023-05-16T05:51:56.388Z,12.48
2023-05-16T05:54:24.752Z,12.59
2023-05-16T05:56:53.944Z,12.57
2023-05-16T05:59:21.529Z,12.67
2023-05-16T06:01:53.023Z,12.62
2023-05-16T06:04:21.148Z,12.81
2023-05-16T06:06:49.837Z,12.83
2023-05-16T06:09:17.443Z,12.84
2023-05-16T06:11:45.978Z,12.92
2023-05-16T06:14:15.504Z,12.93
2023-05-16T06:16:44.064Z,13.16
2023-05-16T06:19:12.569Z,13.05
2023-05-16T06:21:40.675Z,13.10
2023-05-16T06:24:08.409Z,12.87
2023-05-16T06:26:36.960Z,12.84
2023-05-16T06:29:04.867Z,13.06
2023-05-16T06:31:33.936Z,12.83
2023-05-16T06:34:01.994Z,12.86
2023-05-16T06:36:29.608Z,12.85
2023-05-16T06:38:57.234Z,12.92
2023-05-16T06:41:26.351Z,13.03
2023-05-16T06:43:54.124Z,13.04
2023-05-16T06:46:21.796Z,12.77
2023-05-16T06:48:51.124Z,12.66
2023-05-16T06:51:18.760Z,12.78
2023-05-16T06:53:46.621Z,12.89
2023-05-16T06:56:14.272Z,12.73
2023-05-16T06:58:42.614Z,12.74
2023-05-16T07:01:10.279Z,12.85
2023-05-16T07:03:38.034Z,12.61
2023-05-16T07:06:07.349Z,12.67
2023-05-16T07:08:36.283Z,12.71
2023-05-16T07:11:04.035Z,12.59
2023-05-16T07:13:33.694Z,12.67
2023-05-16T07:16:02.904Z,12.06
2023-05-16T07:18:30.954Z,12.61
2023-05-16T07:20:59.008Z,12.42
2023-05-16T07:23:28.410Z,12.42
2023-05-16T07:25:56.382Z,12.48
2023-05-16T07:28:24.168Z,12.39
2023-05-16T07:30:51.820Z,12.20
2023-05-16T07:33:19.580Z,12.05
2023-05-16T07:35:49.907Z,12.09
2023-05-16T07:38:17.856Z,12.06
2023-05-16T07:40:47.041Z,12.19
2023-05-16T07:43:15.086Z,12.10
2023-05-16T07:45:42.834Z,11.92
2023-05-16T07:48:10.844Z,11.96
2023-05-16T07:50:38.524Z,11.87
2023-05-16T07:53:06.610Z,11.96
2023-05-16T07:55:34.302Z,12.09
2023-05-16T07:58:04.257Z,12.18
2023-05-16T08:00:32.344Z,12.05
2023-05-16T08:03:00.289Z,11.83
2023-05-16T08:05:28.396Z,11.84
2023-05-16T08:07:56.337Z,11.65
2023-05-16T08:10:24.330Z,11.72
2023-05-16T08:12:53.341Z,11.87
2023-05-16T08:15:22.631Z,11.91
2023-05-16T08:17:51.196Z,12.02
2023-05-16T08:20:19.166Z,12.32
2023-05-16T08:22:46.838Z,12.53
2023-05-16T08:25:14.902Z,12.73
2023-05-16T08:27:42.899Z,12.90
2023-05-16T08:30:12.310Z,12.80
2023-05-16T08:32:41.511Z,12.85
2023-05-16T08:35:11.346Z,12.83
2023-05-16T08:37:39.048Z,12.86
2023-05-16T08:40:10.935Z,13.00
2023-05-16T08:42:38.809Z,13.35
2023-05-16T08:45:08.976Z,13.80
2023-05-16T08:47:41.273Z,14.10
2023-05-16T08:50:11.975Z,13.98
2023-05-16T08:52:42.695Z,14.32
2023-05-16T08:55:12.121Z,14.53
2023-05-16T08:57:40.338Z,14.35
2023-05-16T09:00:12.440Z,13.90
2023-05-16T09:02:41.544Z,14.45
2023-05-16T09:05:13.682Z,14.06
2023-05-16T09:07:41.606Z,13.62
2023-05-16T09:10:10.401Z,13.29
2023-05-16T09:12:38.567Z,13.32
2023-05-16T09:15:08.449Z,13.05
2023-05-16T09:17:39.875Z,12.95
2023-05-16T09:20:16.338Z,12.74
2023-05-16T09:22:53.408Z,12.48
2023-05-16T09:25:30.445Z,12.26
2023-05-16T09:28:01.096Z,12.26
2023-05-16T09:30:31.791Z,12.14
2023-05-16T09:33:00.215Z,12.09
2023-05-16T09:38:00.264Z,12.15
2023-05-16T09:40:28.107Z,12.30
2023-05-16T09:43:04.442Z,12.49
2023-05-16T09:45:33.377Z,12.73
2023-05-16T09:48:06.443Z,12.62
2023-05-16T09:50:37.000Z,12.95
2023-05-16T09:53:05.860Z,13.18
2023-05-16T09:55:34.017Z,13.25
2023-05-16T09:58:01.904Z,13.32
2023-05-16T10:00:31.861Z,13.51
2023-05-16T10:03:04.032Z,13.48
2023-05-16T10:05:33.081Z,12.92
2023-05-16T10:08:04.387Z,12.93
2023-05-16T10:10:36.212Z,13.14
2023-05-16T10:13:06.520Z,13.08
2023-05-16T10:15:35.705Z,12.99
2023-05-16T10:18:04.870Z,13.00
2023-05-16T10:20:32.633Z,13.18
2023-05-16T10:23:03.459Z,13.17
2023-05-16T10:25:35.155Z,12.97
2023-05-16T10:28:05.005Z,13.16
2023-05-16T10:30:35.092Z,13.02
2023-05-16T10:33:03.396Z,12.85
2023-05-16T10:35:32.757Z,12.58
2023-05-16T10:38:02.665Z,12.72
2023-05-16T10:40:31.477Z,13.01
2023-05-16T10:43:00.181Z,12.89
2023-05-16T10:45:28.758Z,12.94
2023-05-16T10:47:58.458Z,12.92
2023-05-16T10:50:37.318Z,13.35
2023-05-16T10:53:20.972Z,13.25
2023-05-16T10:56:05.932Z,13.35
2023-05-16T10:58:44.364Z,13.05
2023-05-16T11:01:33.586Z,13.41
2023-05-16T11:04:03.358Z,13.10
2023-05-16T11:06:33.156Z,13.14
2023-05-16T11:09:10.626Z,12.61
2023-05-16T11:11:44.358Z,12.90
2023-05-16T11:14:22.062Z,12.80
2023-05-16T11:16:51.441Z,12.89
2023-05-16T11:19:34.068Z,12.96
2023-05-16T11:22:24.709Z,12.92
2023-05-16T11:25:00.536Z,13.26
2023-05-16T11:27:31.068Z,13.41
2023-05-16T11:30:13.137Z,13.55
2023-05-16T11:32:43.299Z,13.45
2023-05-16T11:35:14.785Z,14.19
2023-05-16T11:37:43.985Z,14.37
2023-05-16T11:40:14.817Z,13.91
2023-05-16T11:42:44.421Z,13.76
2023-05-16T11:45:13.568Z,13.56
2023-05-16T11:47:42.638Z,13.40
2023-05-16T11:50:13.979Z,13.59
2023-05-16T11:52:45.876Z,13.57
2023-05-16T11:55:28.097Z,13.76
2023-05-16T11:58:01.436Z,13.70
2023-05-16T12:00:30.484Z,13.66
2023-05-16T12:03:04.577Z,13.84
2023-05-16T12:05:34.056Z,13.85
2023-05-16T12:08:05.804Z,13.54
2023-05-16T12:10:35.303Z,13.64
2023-05-16T12:13:04.332Z,13.48
2023-05-16T12:15:32.988Z,13.55
2023-05-16T12:18:01.164Z,13.45
2023-05-16T12:20:29.235Z,13.43
2023-05-16T12:22:59.095Z,13.28
2023-05-16T12:25:28.998Z,13.23
2023-05-16T12:28:00.956Z,13.31
2023-05-16T12:30:30.658Z,13.22
2023-05-16T12:32:59.568Z,13.76
2023-05-16T12:35:32.550Z,13.82
2023-05-16T12:38:00.492Z,13.57
2023-05-16T12:40:30.550Z,13.32
2023-05-16T12:43:00.076Z,13.31
2023-05-16T12:45:29.805Z,13.66
2023-05-16T12:47:57.531Z,13.78
2023-05-16T12:50:28.213Z,13.90
2023-05-16T12:53:00.463Z,14.29
2023-05-16T12:55:28.772Z,14.80
2023-05-16T12:57:57.011Z,14.60
2023-05-16T13:00:26.780Z,14.97
2023-05-16T13:02:55.090Z,15.33
2023-05-16T13:05:23.535Z,15.41
2023-05-16T13:07:52.148Z,15.58
2023-05-16T13:10:20.321Z,15.23
2023-05-16T13:12:48.251Z,14.89
2023-05-16T13:15:16.477Z,14.69
2023-05-16T13:17:45.621Z,14.91
2023-05-16T13:20:15.460Z,15.11
2023-05-16T13:22:44.072Z,15.09
2023-05-16T13:25:13.035Z,15.29
2023-05-16T13:27:40.788Z,15.26
2023-05-16T13:30:09.720Z,15.41
2023-05-16T13:32:37.999Z,15.13
2023-05-16T13:35:08.074Z,15.36
2023-05-16T13:37:35.873Z,15.23
2023-05-16T13:40:04.459Z,15.58
2023-05-16T13:42:32.168Z,16.08
2023-05-16T13:45:00.304Z,16.40
2023-05-16T13:47:27.962Z,16.09
2023-05-16T13:49:55.980Z,15.84
2023-05-16T13:52:24.523Z,16.26
2023-05-16T13:54:53.663Z,16.31
2023-05-16T13:57:23.654Z,16.16
2023-05-16T14:02:22.346Z,15.61
2023-05-16T14:04:50.242Z,15.69
2023-05-16T14:07:18.468Z,15.86
2023-05-16T14:09:46.183Z,15.97
2023-05-16T14:12:15.903Z,15.73
2023-05-16T14:14:43.603Z,15.57
2023-05-16T14:17:11.864Z,15.56
2023-05-16T14:19:39.778Z,15.66
2023-05-16T14:22:08.260Z,15.67
2023-05-16T14:24:36.058Z,15.43
2023-05-16T14:27:04.664Z,15.72
2023-05-16T14:29:33.741Z,15.46
2023-05-16T14:32:02.141Z,15.64
2023-05-16T14:34:30.201Z,16.01
2023-05-16T14:36:58.713Z,16.52
2023-05-16T14:39:27.389Z,16.91
2023-05-16T14:41:55.363Z,16.60
2023-05-16T14:44:24.745Z,16.98
2023-05-16T14:46:53.885Z,16.81
2023-05-16T14:49:21.897Z,16.78
2023-05-16T14:51:50.822Z,16.53
2023-05-16T14:54:19.120Z,16.13
2023-05-16T14:56:46.850Z,16.50
2023-05-16T14:59:15.363Z,16.77
2023-05-16T15:01:43.356Z,16.31
2023-05-16T15:04:12.661Z,16.27
2023-05-16T15:06:40.685Z,16.33
2023-05-16T15:09:08.402Z,16.53
2023-05-16T15:11:36.663Z,16.85
2023-05-16T15:14:04.407Z,17.02
2023-05-16T15:16:32.254Z,17.65
2023-05-16T15:19:00.421Z,17.69
2023-05-16T15:21:29.503Z,17.48
2023-05-16T15:23:57.770Z,17.79
2023-05-16T15:26:25.575Z,17.92
2023-05-16T15:28:55.735Z,17.76
2023-05-16T15:31:23.865Z,17.45
2023-05-16T15:33:51.730Z,17.00
2023-05-16T15:36:19.484Z,16.99
2023-05-16T15:38:48.560Z,17.18
2023-05-16T15:41:32.104Z,17.10
2023-05-16T15:44:05.483Z,17.45
2023-05-16T15:46:33.523Z,17.49
2023-05-16T15:49:01.434Z,17.51
2023-05-16T15:51:29.856Z,17.44
2023-05-16T15:53:58.920Z,17.54
2023-05-16T15:56:27.073Z,17.64
2023-05-16T15:58:56.634Z,17.53
2023-05-16T16:01:24.642Z,17.09
2023-05-16T16:03:52.461Z,16.79
2023-05-16T16:06:20.385Z,16.73
2023-05-16T16:08:48.081Z,16.30
2023-05-16T16:11:17.247Z,16.53
2023-05-16T16:13:45.110Z,17.14
2023-05-16T16:16:12.869Z,17.32
2023-05-16T16:18:40.852Z,17.12
2023-05-16T16:21:10.131Z,17.24
2023-05-16T16:23:38.531Z,17.13
2023-05-16T16:26:06.914Z,17.72
2023-05-16T16:28:36.386Z,17.62
2023-05-16T16:31:04.252Z,18.13
2023-05-16T16:33:34.283Z,19.75
2023-05-16T16:36:02.440Z,20.09
2023-05-16T16:38:30.289Z,19.68
2023-05-16T16:40:58.245Z,21.23
2023-05-16T16:43:26.052Z,20.36
2023-05-16T16:45:55.666Z,20.80
2023-05-16T16:48:23.405Z,21.67
2023-05-16T16:50:52.262Z,21.25
2023-05-16T16:53:19.934Z,21.11
2023-05-16T16:55:47.685Z,21.34
2023-05-16T16:58:15.636Z,21.45
2023-05-16T17:00:44.609Z,20.68
2023-05-16T17:03:13.849Z,21.61
2023-05-16T17:05:42.337Z,21.89
2023-05-16T17:08:10.258Z,22.03
2023-05-16T17:10:38.000Z,21.36
2023-05-16T17:13:10.542Z,20.15
2023-05-16T17:15:38.472Z,18.48
2023-05-16T17:18:07.738Z,18.24
2023-05-16T17:20:37.405Z,17.26
2023-05-16T17:23:05.845Z,16.54
2023-05-16T17:25:33.635Z,15.83
2023-05-16T17:28:01.371Z,15.45
2023-05-16T17:30:29.089Z,14.88
2023-05-16T17:32:57.549Z,14.85
2023-05-16T17:35:26.321Z,14.71
2023-05-16T17:37:55.455Z,14.64
2023-05-16T17:40:23.895Z,14.42
2023-05-16T17:42:51.794Z,14.43
2023-05-16T17:45:19.687Z,14.28
2023-05-16T17:47:47.765Z,14.07
2023-05-16T17:50:15.696Z,14.00
2023-05-16T17:52:44.375Z,13.87
2023-05-16T17:55:13.445Z,13.97
2023-05-16T17:57:41.519Z,13.94
2023-05-16T18:00:10.797Z,13.70
2023-05-16T18:02:39.465Z,13.43
2023-05-16T18:05:08.202Z,13.03
2023-05-16T18:07:35.903Z,13.20
2023-05-16T18:10:03.950Z,13.19
2023-05-16T18:12:33.529Z,13.07
2023-05-16T18:15:01.253Z,12.89
2023-05-16T18:17:29.665Z,12.87
2023-05-16T18:19:58.511Z,12.57
2023-05-16T18:22:27.741Z,12.30
2023-05-16T18:24:55.428Z,12.30
2023-05-16T18:27:23.402Z,12.31
2023-05-16T18:29:52.482Z,12.19
2023-05-16T18:32:21.745Z,12.25
2023-05-16T18:34:49.494Z,12.26
2023-05-16T18:37:17.653Z,12.20
2023-05-16T18:39:45.848Z,12.23
2023-05-16T18:42:13.647Z,12.15
2023-05-16T18:44:41.594Z,12.11
2023-05-16T18:47:10.750Z,12.06
2023-05-16T18:49:39.424Z,12.05
2023-05-16T18:52:08.335Z,12.02
2023-05-16T18:54:37.441Z,11.98
2023-05-16T18:57:06.515Z,11.93
2023-05-16T18:59:35.952Z,11.92
2023-05-16T19:02:04.687Z,11.97
2023-05-16T19:04:33.932Z,12.09
2023-05-16T19:07:04.800Z,11.97
2023-05-16T19:09:33.586Z,11.90
2023-05-16T19:12:01.339Z,11.87
2023-05-16T19:14:29.607Z,11.90
2023-05-16T19:16:57.599Z,11.86
2023-05-16T19:19:25.869Z,11.84
2023-05-16T19:21:55.039Z,11.78
2023-05-16T19:24:22.844Z,11.98
2023-05-16T19:26:50.558Z,11.88
2023-05-16T19:29:18.996Z,11.78
2023-05-16T19:31:46.851Z,11.80
2023-05-16T19:34:15.111Z,11.58
2023-05-16T19:36:43.315Z,11.25
2023-05-16T19:39:12.353Z,11.21
2023-05-16T19:41:40.636Z,11.13
2023-05-16T19:44:08.357Z,10.92
2023-05-16T19:46:36.709Z,10.73
2023-05-16T19:49:04.712Z,10.64
2023-05-16T19:51:41.289Z,10.69
2023-05-16T19:54:11.675Z,10.57
2023-05-16T19:56:39.726Z,10.53
2023-05-16T19:59:07.456Z,10.39
2023-05-16T20:01:35.468Z,10.46
2023-05-16T20:04:05.439Z,10.36
2023-05-16T20:06:33.351Z,10.29
2023-05-16T20:09:01.750Z,10.14
2023-05-16T20:11:30.808Z,9.98
2023-05-16T20:14:00.431Z,9.81
2023-05-16T20:16:28.250Z,9.65
2023-05-16T20:18:56.380Z,9.61
2023-05-16T20:21:24.104Z,9.47
2023-05-16T20:23:52.132Z,9.29
2023-05-16T20:26:20.127Z,9.15
2023-05-16T20:28:49.133Z,9.05
2023-05-16T20:31:17.047Z,8.98
2023-05-16T20:33:46.560Z,8.94
2023-05-16T20:36:14.966Z,8.92
2023-05-16T20:38:42.706Z,8.92
2023-05-16T20:41:10.826Z,8.90
2023-05-16T20:43:38.880Z,9.05
2023-05-16T20:46:08.017Z,9.14
2023-05-16T20:48:36.246Z,9.01
2023-05-16T20:51:04.093Z,8.88
2023-05-16T20:53:32.162Z,8.78
2023-05-16T20:55:59.862Z,8.66
2023-05-16T20:58:27.836Z,8.64
2023-05-16T21:00:55.765Z,8.49
2023-05-16T21:03:24.803Z,8.42
2023-05-16T21:05:52.861Z,8.37
2023-05-16T21:08:20.605Z,8.24
2023-05-16T21:10:48.549Z,8.27
2023-05-16T21:13:16.249Z,8.28
2023-05-16T21:15:43.945Z,8.28
2023-05-16T21:18:11.666Z,8.35
2023-05-16T21:20:41.359Z,8.36
2023-05-16T21:23:09.083Z,8.30
2023-05-16T21:25:36.938Z,8.14
2023-05-16T21:28:05.151Z,8.41
2023-05-16T21:30:32.936Z,8.49
2023-05-16T21:33:01.100Z,8.34
2023-05-16T21:35:29.111Z,8.33
2023-05-16T21:37:58.670Z,8.38
2023-05-16T21:40:26.418Z,8.32
2023-05-16T21:42:54.565Z,8.23
2023-05-16T21:45:22.482Z,8.22
2023-05-16T21:47:50.722Z,8.31
2023-05-16T21:50:18.699Z,8.13
2023-05-16T21:52:46.958Z,8.07
2023-05-16T21:55:15.990Z,8.36
2023-05-16T21:57:43.987Z,8.31
2023-05-16T22:00:12.894Z,8.24
2023-05-16T22:02:43.258Z,8.28
2023-05-16T22:05:11.211Z,8.20
2023-05-16T22:07:39.156Z,8.16
2023-05-16T22:10:08.296Z,8.16
2023-05-16T22:12:37.602Z,8.09
2023-05-16T22:15:06.010Z,8.31
2023-05-16T22:17:34.146Z,8.62
2023-05-16T22:20:02.443Z,8.49
2023-05-16T22:22:30.400Z,8.38
2023-05-16T22:24:58.246Z,8.22
2023-05-16T22:27:26.632Z,8.20
2023-05-16T22:29:55.745Z,8.14
2023-05-16T22:32:23.896Z,8.20
2023-05-16T22:34:52.698Z,8.19
2023-05-16T22:37:20.978Z,8.24
2023-05-16T22:39:48.669Z,8.13
2023-05-16T22:42:16.394Z,8.22
2023-05-16T22:44:44.494Z,8.14
2023-05-16T22:47:13.556Z,8.15
2023-05-16T22:49:41.742Z,8.28
2023-05-16T22:52:09.470Z,8.19
2023-05-16T22:54:37.808Z,8.17
2023-05-16T22:57:05.811Z,8.15
2023-05-16T22:59:34.429Z,8.04
2023-05-16T23:02:02.068Z,8.07
2023-05-16T23:04:31.757Z,8.01
2023-05-16T23:06:59.688Z,7.99
2023-05-16T23:09:27.581Z,8.03
2023-05-16T23:11:55.297Z,7.91
2023-05-16T23:14:23.234Z,7.90
2023-05-16T23:16:50.946Z,7.82
2023-05-16T23:19:19.081Z,7.86
2023-05-16T23:21:48.247Z,7.80
2023-05-16T23:24:16.432Z,7.70
2023-05-16T23:26:44.106Z,7.68
2023-05-16T23:29:12.062Z,7.75
2023-05-16T23:31:39.766Z,7.69
2023-05-16T23:34:07.703Z,7.73
2023-05-16T23:36:35.690Z,7.78
2023-05-16T23:39:05.385Z,7.77
2023-05-16T23:41:33.087Z,7.75
2023-05-16T23:44:00.996Z,7.73
2023-05-16T23:46:28.654Z,7.60
2023-05-16T23:48:57.446Z,7.74
2023-05-16T23:51:25.237Z,7.62
2023-05-16T23:53:52.885Z,7.58
2023-05-16T23:56:22.342Z,7.13
2023-05-16T23:58:50.082Z,7.35
